createdAt,value
2022-12-15T00:00:46.143Z,97104.90
2022-12-15T00:03:27.261Z,97112.04
2022-12-15T00:05:55.174Z,97112.83
2022-12-15T00:08:23.059Z,97111.00
2022-12-15T00:10:50.890Z,97114.50
2022-12-15T00:13:18.943Z,97113.70
2022-12-15T00:15:49.043Z,97115.23
2022-12-15T00:18:16.972Z,97122.98
2022-12-15T00:20:44.801Z,97127.52
2022-12-15T00:23:13.469Z,97133.36
2022-12-15T00:25:41.380Z,97133.88
2022-12-15T00:28:09.270Z,97134.54
2022-12-15T00:30:37.213Z,97138.70
2022-12-15T00:33:09.932Z,97140.35
2022-12-15T00:35:37.994Z,97140.42
2022-12-15T00:38:10.413Z,97140.83
2022-12-15T00:40:38.398Z,97145.13
2022-12-15T00:43:06.522Z,97150.45
2022-12-15T00:45:34.429Z,97152.13
2022-12-15T00:48:02.077Z,97156.92
2022-12-15T00:50:29.640Z,97161.90
2022-12-15T00:52:57.203Z,97166.08
2022-12-15T00:55:25.032Z,97167.70
2022-12-15T00:57:54.034Z,97172.02
2022-12-15T01:00:22.919Z,97172.19
2022-12-15T01:02:50.882Z,97173.46
2022-12-15T01:05:18.773Z,97173.75
2022-12-15T01:07:49.806Z,97173.99
2022-12-15T01:10:19.157Z,97175.30
2022-12-15T01:12:47.187Z,97176.94
2022-12-15T01:15:15.189Z,97177.82
2022-12-15T01:17:42.901Z,97182.84
2022-12-15T01:20:11.524Z,97186.73
2022-12-15T01:22:39.754Z,97187.23
2022-12-15T01:25:09.239Z,97188.91
2022-12-15T01:27:37.220Z,97187.75
2022-12-15T01:30:06.898Z,97185.36
2022-12-15T01:32:34.792Z,97187.17
2022-12-15T01:35:03.681Z,97187.52
2022-12-15T01:37:31.573Z,97187.33
2022-12-15T01:39:59.239Z,97191.52
2022-12-15T01:42:26.848Z,97195.02
2022-12-15T01:45:23.775Z,97192.60
2022-12-15T01:48:00.817Z,97197.89
2022-12-15T01:50:31.292Z,97196.05
2022-12-15T01:52:59.475Z,97201.05
2022-12-15T01:55:30.235Z,97209.19
2022-12-15T01:58:00.867Z,97210.68
2022-12-15T02:00:29.625Z,97209.98
2022-12-15T02:03:00.708Z,97213.28
2022-12-15T02:05:31.074Z,97214.22
2022-12-15T02:08:00.573Z,97215.73
2022-12-15T02:10:39.366Z,97212.60
2022-12-15T02:13:19.837Z,97216.31
2022-12-15T02:16:09.105Z,97217.52
2022-12-15T02:18:54.869Z,97220.85
2022-12-15T02:21:54.930Z,97229.84
2022-12-15T02:24:51.768Z,97230.05
2022-12-15T02:27:50.569Z,97232.58
2022-12-15T02:30:27.041Z,97242.84
2022-12-15T02:33:01.070Z,97246.56
2022-12-15T02:35:31.652Z,97247.46
2022-12-15T02:37:59.259Z,97250.13
2022-12-15T02:40:26.851Z,97252.80
2022-12-15T02:42:59.480Z,97256.48
2022-12-15T02:45:51.908Z,97263.15
2022-12-15T02:48:22.348Z,97270.69
2022-12-15T02:51:27.589Z,97272.70
2022-12-15T02:54:00.533Z,97271.70
2022-12-15T02:56:31.148Z,97272.67
2022-12-15T02:59:04.784Z,97274.98
2022-12-15T03:01:51.793Z,97273.30
2022-12-15T03:04:20.205Z,97273.99
2022-12-15T03:07:00.555Z,97274.36
2022-12-15T03:09:31.046Z,97277.07
2022-12-15T03:11:59.601Z,97278.58
2022-12-15T03:14:27.150Z,97279.05
2022-12-15T03:16:55.448Z,97279.86
2022-12-15T03:19:23.582Z,97277.55
2022-12-15T03:21:51.547Z,97277.05
2022-12-15T03:24:19.263Z,97283.59
2022-12-15T03:26:47.144Z,97290.14
2022-12-15T03:29:14.736Z,97297.63
2022-12-15T03:31:42.491Z,97300.12
2022-12-15T03:34:10.677Z,97303.77
2022-12-15T03:36:39.031Z,97309.42
2022-12-15T03:39:06.686Z,97310.79
2022-12-15T03:41:34.753Z,97310.79
2022-12-15T03:44:02.430Z,97310.64
2022-12-15T03:46:30.205Z,97315.48
2022-12-15T03:48:57.824Z,97319.28
2022-12-15T03:51:25.533Z,97326.79
2022-12-15T03:53:53.084Z,97328.27
2022-12-15T03:56:20.775Z,97329.12
2022-12-15T03:58:48.805Z,97331.98
2022-12-15T04:01:32.217Z,97334.00
2022-12-15T04:04:01.689Z,97337.85
2022-12-15T04:06:30.568Z,97338.79
2022-12-15T04:08:58.315Z,97340.42
2022-12-15T04:11:26.015Z,97339.90
2022-12-15T04:13:53.987Z,97338.59
2022-12-15T04:16:21.607Z,97343.48
2022-12-15T04:18:49.283Z,97345.65
2022-12-15T04:21:16.889Z,97346.67
2022-12-15T04:23:44.447Z,97357.35
2022-12-15T04:26:12.181Z,97360.52
2022-12-15T04:28:39.807Z,97364.04
2022-12-15T04:31:15.269Z,97362.69
2022-12-15T04:33:48.049Z,97364.02
2022-12-15T04:36:16.885Z,97366.20
2022-12-15T04:38:49.880Z,97374.76
2022-12-15T04:41:21.039Z,97375.77
2022-12-15T04:43:49.008Z,97377.13
2022-12-15T04:46:16.669Z,97376.08
2022-12-15T04:48:44.338Z,97377.91
2022-12-15T04:51:11.865Z,97382.73
2022-12-15T04:53:40.222Z,97385.04
2022-12-15T04:56:18.233Z,97392.39
2022-12-15T04:58:47.246Z,97398.27
2022-12-15T05:01:14.936Z,97403.45
2022-12-15T05:03:42.929Z,97409.30
2022-12-15T05:06:10.801Z,97410.95
2022-12-15T05:08:38.490Z,97409.11
2022-12-15T05:11:06.210Z,97412.77
2022-12-15T05:13:34.252Z,97413.77
2022-12-15T05:16:02.107Z,97417.80
2022-12-15T05:18:29.783Z,97427.67
2022-12-15T05:21:00.218Z,97435.39
2022-12-15T05:23:28.423Z,97437.56
2022-12-15T05:25:59.137Z,97438.91
2022-12-15T05:28:27.871Z,97453.43
2022-12-15T05:30:55.495Z,97456.09
2022-12-15T05:33:23.061Z,97470.64
2022-12-15T05:35:51.103Z,97472.34
2022-12-15T05:38:18.594Z,97470.18
2022-12-15T05:40:46.148Z,97476.55
2022-12-15T05:43:13.690Z,97478.41
2022-12-15T05:45:41.254Z,97468.84
2022-12-15T05:48:08.995Z,97464.83
2022-12-15T05:50:36.978Z,97472.83
2022-12-15T05:53:04.676Z,97476.69
2022-12-15T05:55:32.267Z,97480.70
2022-12-15T05:57:59.860Z,97483.40
2022-12-15T06:00:27.421Z,97485.26
2022-12-15T06:02:55.042Z,97498.84
2022-12-15T06:05:22.757Z,97508.48
2022-12-15T06:07:50.341Z,97517.36
2022-12-15T06:10:18.139Z,97523.87
2022-12-15T06:12:45.942Z,97520.04
2022-12-15T06:15:13.606Z,97520.39
2022-12-15T06:17:41.165Z,97530.27
2022-12-15T06:20:09.135Z,97536.48
2022-12-15T06:22:37.198Z,97538.46
2022-12-15T06:25:05.240Z,97545.82
2022-12-15T06:27:35.847Z,97554.67
2022-12-15T06:30:04.182Z,97568.06
2022-12-15T06:32:34.915Z,97566.05
2022-12-15T06:35:02.912Z,97570.08
2022-12-15T06:37:30.693Z,97582.14
2022-12-15T06:39:58.244Z,97592.14
2022-12-15T06:42:25.821Z,97593.64
2022-12-15T06:44:53.352Z,97591.98
2022-12-15T06:47:20.928Z,97591.14
2022-12-15T06:49:48.478Z,97592.30
2022-12-15T06:52:16.412Z,97593.66
2022-12-15T06:54:44.126Z,97589.31
2022-12-15T06:57:11.678Z,97589.79
2022-12-15T06:59:39.229Z,97598.63
2022-12-15T07:02:17.250Z,97606.82
2022-12-15T07:04:45.534Z,97609.45
2022-12-15T07:07:13.067Z,97618.16
2022-12-15T07:09:40.686Z,97625.19
2022-12-15T07:12:10.219Z,97630.88
2022-12-15T07:14:37.794Z,97635.23
2022-12-15T07:17:05.360Z,97647.29
2022-12-15T07:19:32.920Z,97653.14
2022-12-15T07:22:00.596Z,97663.52
2022-12-15T07:24:28.692Z,97664.35
2022-12-15T07:26:56.731Z,97669.06
2022-12-15T07:29:24.315Z,97679.95
2022-12-15T07:31:52.125Z,97686.14
2022-12-15T07:34:20.075Z,97680.80
2022-12-15T07:36:52.099Z,97680.12
2022-12-15T07:39:20.453Z,97679.45
2022-12-15T07:41:48.254Z,97691.16
2022-12-15T07:44:16.144Z,97695.98
2022-12-15T07:46:43.679Z,97702.33
2022-12-15T07:49:11.260Z,97708.19
2022-12-15T07:51:39.082Z,97695.30
2022-12-15T07:54:06.784Z,97704.64
2022-12-15T07:56:39.013Z,97701.09
2022-12-15T07:59:07.962Z,97699.04
2022-12-15T08:01:35.851Z,97706.54
2022-12-15T08:04:04.196Z,97710.41
2022-12-15T08:06:32.083Z,97715.91
2022-12-15T08:09:00.028Z,97710.19
2022-12-15T08:11:27.782Z,97715.85
2022-12-15T08:14:04.543Z,97721.16
2022-12-15T08:16:33.550Z,97725.80
2022-12-15T08:19:01.203Z,97732.11
2022-12-15T08:21:28.992Z,97739.16
2022-12-15T08:23:56.909Z,97747.53
2022-12-15T08:26:30.059Z,97759.75
2022-12-15T08:29:24.512Z,97762.09
2022-12-15T08:31:50.355Z,97767.76
2022-12-15T08:34:18.535Z,97763.89
2022-12-15T08:36:46.143Z,97766.52
2022-12-15T08:39:14.219Z,97773.14
2022-12-15T08:41:42.075Z,97774.77
2022-12-15T08:44:10.113Z,97773.91
2022-12-15T08:46:37.912Z,97775.08
2022-12-15T08:49:05.835Z,97776.04
2022-12-15T08:51:33.566Z,97778.94
2022-12-15T08:54:01.842Z,97784.29
2022-12-15T08:56:30.146Z,97784.10
2022-12-15T08:59:00.757Z,97787.08
2022-12-15T09:01:29.397Z,97784.85
2022-12-15T09:03:58.590Z,97781.57
2022-12-15T09:06:29.410Z,97785.55
2022-12-15T09:08:59.808Z,97781.36
2022-12-15T09:11:29.288Z,97787.66
2022-12-15T09:13:57.562Z,97789.48
2022-12-15T09:16:26.453Z,97792.11
2022-12-15T09:18:56.564Z,97788.71
2022-12-15T09:21:26.323Z,97789.59
2022-12-15T09:23:57.193Z,97789.34
2022-12-15T09:26:25.105Z,97794.66
2022-12-15T09:28:54.502Z,97794.88
2022-12-15T09:31:26.730Z,97795.39
2022-12-15T09:33:56.045Z,97795.64
2022-12-15T09:36:24.401Z,97797.45
2022-12-15T09:38:53.263Z,97803.99
2022-12-15T09:41:26.873Z,97810.06
2022-12-15T09:44:17.669Z,97813.14
2022-12-15T09:47:13.420Z,97816.86
2022-12-15T09:50:04.176Z,97821.29
2022-12-15T09:52:38.923Z,97820.79
2022-12-15T09:55:18.850Z,97827.20
2022-12-15T09:58:00.661Z,97826.92
2022-12-15T10:00:45.694Z,97836.64
2022-12-15T10:03:40.683Z,97833.89
2022-12-15T10:06:18.456Z,97831.97
2022-12-15T10:08:55.665Z,97821.02
2022-12-15T10:11:41.642Z,97819.36
2022-12-15T10:14:28.255Z,97823.92
2022-12-15T10:17:02.787Z,97820.43
2022-12-15T10:19:51.533Z,97825.55
2022-12-15T10:22:30.380Z,97829.39
2022-12-15T10:25:10.471Z,97827.02
2022-12-15T10:28:15.817Z,97826.39
2022-12-15T10:30:59.208Z,97823.13
2022-12-15T10:33:35.096Z,97815.98
2022-12-15T10:36:12.360Z,97813.69
2022-12-15T10:38:42.458Z,97817.45
2022-12-15T10:41:12.427Z,97813.40
2022-12-15T10:43:43.120Z,97804.64
2022-12-15T10:46:16.939Z,97803.80
2022-12-15T10:48:48.704Z,97803.39
2022-12-15T10:51:30.234Z,97798.43
2022-12-15T10:54:06.611Z,97802.21
2022-12-15T10:56:35.243Z,97800.74
2022-12-15T10:59:23.516Z,97811.61
2022-12-15T11:01:52.456Z,97824.00
2022-12-15T11:04:29.046Z,97830.33
2022-12-15T11:07:02.456Z,97827.48
2022-12-15T11:09:38.474Z,97830.40
2022-12-15T11:12:32.474Z,97830.03
2022-12-15T11:15:00.732Z,97833.39
2022-12-15T11:17:40.435Z,97838.66
2022-12-15T11:20:18.390Z,97847.29
2022-12-15T11:23:23.336Z,97844.65
2022-12-15T11:26:23.025Z,97841.29
2022-12-15T11:29:01.529Z,97859.50
2022-12-15T11:31:41.348Z,97862.67
2022-12-15T11:34:18.420Z,97859.63
2022-12-15T11:37:07.875Z,97855.27
2022-12-15T11:39:53.630Z,97862.61
2022-12-15T11:42:44.255Z,97859.17
2022-12-15T11:45:25.919Z,97858.09
2022-12-15T11:48:06.144Z,97860.49
2022-12-15T11:53:54.089Z,97860.48
2022-12-15T11:56:32.305Z,97861.51
2022-12-15T11:59:29.315Z,97870.02
2022-12-15T12:02:27.439Z,97879.42
2022-12-15T12:05:44.202Z,97884.70
2022-12-15T12:08:26.330Z,97882.06
2022-12-15T12:11:11.835Z,97888.21
2022-12-15T12:14:02.538Z,97890.61
2022-12-15T12:17:02.832Z,97893.44
2022-12-15T12:19:44.247Z,97890.21
2022-12-15T12:22:27.654Z,97886.30
2022-12-15T12:25:09.410Z,97879.48
2022-12-15T12:27:48.721Z,97877.50
2022-12-15T12:30:21.207Z,97875.73
2022-12-15T12:32:50.605Z,97872.05
2022-12-15T12:35:35.958Z,97868.62
2022-12-15T12:38:09.699Z,97863.40
2022-12-15T12:40:40.381Z,97867.66
2022-12-15T12:43:14.041Z,97875.13
2022-12-15T12:45:51.462Z,97873.33
2022-12-15T12:48:35.639Z,97875.76
2022-12-15T12:51:24.255Z,97884.33
2022-12-15T12:53:52.532Z,97884.60
2022-12-15T12:56:45.469Z,97877.83
2022-12-15T12:59:33.986Z,97882.38
2022-12-15T13:02:20.435Z,97890.80
2022-12-15T13:04:57.333Z,97901.66
2022-12-15T13:07:27.592Z,97899.79
2022-12-15T13:10:16.512Z,97895.31
2022-12-15T13:12:58.394Z,97889.45
2022-12-15T13:15:45.012Z,97888.48
2022-12-15T13:18:22.583Z,97883.88
2022-12-15T13:20:54.594Z,97880.86
2022-12-15T13:23:22.104Z,97880.35
2022-12-15T13:25:55.822Z,97879.27
2022-12-15T13:28:38.395Z,97882.92
2022-12-15T13:31:18.262Z,97882.55
2022-12-15T13:33:51.781Z,97880.35
2022-12-15T13:36:37.961Z,97882.20
2022-12-15T13:39:11.979Z,97886.11
2022-12-15T13:42:07.553Z,97887.84
2022-12-15T13:44:41.853Z,97893.63
2022-12-15T13:47:20.410Z,97896.05
2022-12-15T13:50:03.093Z,97898.38
2022-12-15T13:55:46.107Z,97913.48
2022-12-15T13:58:21.676Z,97919.26
2022-12-15T14:00:54.892Z,97920.98
2022-12-15T14:03:23.316Z,97923.70
2022-12-15T14:05:57.318Z,97928.42
2022-12-15T14:08:30.441Z,97941.88
2022-12-15T14:11:07.076Z,97946.59
2022-12-15T14:13:46.899Z,97949.45
2022-12-15T14:16:22.840Z,97952.31
2022-12-15T14:19:09.233Z,97954.66
2022-12-15T14:21:37.027Z,97955.54
2022-12-15T14:24:37.985Z,97957.73
2022-12-15T14:27:09.160Z,97969.34
2022-12-15T14:29:37.103Z,97984.95
2022-12-15T14:32:05.794Z,97980.80
2022-12-15T14:34:37.585Z,97984.49
2022-12-15T14:37:10.968Z,97992.87
2022-12-15T14:39:44.386Z,98000.73
2022-12-15T14:42:19.028Z,98001.22
2022-12-15T14:44:50.764Z,97997.70
2022-12-15T14:47:26.931Z,97994.85
2022-12-15T14:49:57.957Z,97990.34
2022-12-15T14:52:39.991Z,97987.67
2022-12-15T14:55:23.449Z,97989.69
2022-12-15T14:57:52.602Z,97994.23
2022-12-15T15:00:29.556Z,97995.56
2022-12-15T15:03:09.223Z,97861.80
2022-12-15T15:03:19.644Z,97992.88
2022-12-15T15:05:57.342Z,97998.55
2022-12-15T15:08:30.948Z,97998.05
2022-12-15T15:11:02.603Z,98003.75
2022-12-15T15:13:40.400Z,98004.92
2022-12-15T15:16:16.759Z,98001.75
2022-12-15T15:18:50.134Z,97997.23
2022-12-15T15:21:22.285Z,97998.09
2022-12-15T15:24:20.737Z,97995.08
2022-12-15T15:26:48.607Z,97992.92
2022-12-15T15:29:41.585Z,97996.45
2022-12-15T15:32:22.659Z,98002.48
2022-12-15T15:34:50.451Z,98004.00
2022-12-15T15:37:24.543Z,98011.53
2022-12-15T15:39:54.500Z,98020.08
2022-12-15T15:42:22.343Z,98014.73
2022-12-15T15:44:51.512Z,98017.23
2022-12-15T15:47:24.990Z,98021.59
2022-12-15T15:49:54.563Z,98016.90
2022-12-15T15:52:22.772Z,98012.88
2022-12-15T15:54:52.831Z,98003.50
2022-12-15T15:57:20.624Z,97992.44
2022-12-15T15:59:48.321Z,97998.13
2022-12-15T16:02:16.434Z,98009.35
2022-12-15T16:04:44.794Z,98008.17
2022-12-15T16:07:27.689Z,98005.50
2022-12-15T16:09:55.905Z,98003.50
2022-12-15T16:12:29.601Z,97993.98
2022-12-15T16:14:57.171Z,97981.93
2022-12-15T16:17:25.003Z,97970.56
2022-12-15T16:19:52.675Z,97960.52
2022-12-15T16:22:22.248Z,97958.68
2022-12-15T16:24:50.353Z,97961.20
2022-12-15T16:27:18.201Z,97962.36
2022-12-15T16:29:45.868Z,97964.21
2022-12-15T16:32:13.523Z,97970.08
2022-12-15T16:34:41.304Z,97978.11
2022-12-15T16:37:25.324Z,97977.29
2022-12-15T16:39:53.078Z,97979.64
2022-12-15T16:42:21.878Z,97986.16
2022-12-15T16:44:49.776Z,97985.00
2022-12-15T16:47:17.632Z,97986.17
2022-12-15T16:49:45.288Z,97992.52
2022-12-15T16:52:21.039Z,97992.20
2022-12-15T16:54:50.053Z,97988.66
2022-12-15T16:57:17.736Z,97988.18
2022-12-15T16:59:45.314Z,97988.67
2022-12-15T17:02:28.569Z,97989.33
2022-12-15T17:04:59.006Z,97986.98
2022-12-15T17:07:27.205Z,97998.05
2022-12-15T17:09:55.403Z,98009.10
2022-12-15T17:12:23.166Z,98010.27
2022-12-15T17:14:50.960Z,98004.41
2022-12-15T17:17:20.101Z,98008.92
2022-12-15T17:20:19.860Z,98013.94
2022-12-15T17:22:36.116Z,98017.95
2022-12-15T17:25:04.017Z,98015.11
2022-12-15T17:27:31.677Z,98016.13
2022-12-15T17:30:00.912Z,98016.45
2022-12-15T17:32:28.542Z,98011.60
2022-12-15T17:34:56.577Z,98003.56
2022-12-15T17:37:24.327Z,97994.70
2022-12-15T17:39:51.973Z,97993.52
2022-12-15T17:42:21.072Z,97989.48
2022-12-15T17:44:49.395Z,97987.31
2022-12-15T17:47:20.458Z,97982.13
2022-12-15T17:49:48.225Z,97979.27
2022-12-15T17:52:30.547Z,97978.30
2022-12-15T17:55:00.673Z,97978.13
2022-12-15T17:57:28.692Z,97977.79
2022-12-15T17:59:56.272Z,97978.46
2022-12-15T18:02:24.398Z,97982.30
2022-12-15T18:04:52.100Z,97981.98
2022-12-15T18:07:22.824Z,97987.34
2022-12-15T18:09:51.445Z,97988.84
2022-12-15T18:12:25.106Z,97981.81
2022-12-15T18:14:54.001Z,97985.00
2022-12-15T18:17:21.927Z,97992.85
2022-12-15T18:19:49.504Z,97990.67
2022-12-15T18:22:23.082Z,97991.85
2022-12-15T18:24:53.610Z,97992.85
2022-12-15T18:27:23.454Z,98001.21
2022-12-15T18:29:51.532Z,98006.58
2022-12-15T18:32:20.506Z,98000.55
2022-12-15T18:34:48.347Z,98002.74
2022-12-15T18:37:18.268Z,98007.75
2022-12-15T18:39:47.727Z,98012.43
2022-12-15T18:42:17.379Z,98017.80
2022-12-15T18:44:47.901Z,98019.30
2022-12-15T18:47:18.517Z,98020.96
2022-12-15T18:49:46.836Z,98016.96
2022-12-15T18:52:22.000Z,98016.12
2022-12-15T18:54:52.625Z,98020.30
2022-12-15T18:57:33.093Z,98014.45
2022-12-15T19:00:19.795Z,98012.92
2022-12-15T19:02:47.606Z,98010.08
2022-12-15T19:05:19.674Z,98010.41
2022-12-15T19:07:50.722Z,98009.60
2022-12-15T19:10:20.057Z,97999.88
2022-12-15T19:12:47.672Z,97994.02
2022-12-15T19:15:19.471Z,97995.02
2022-12-15T19:17:47.511Z,97998.71
2022-12-15T19:20:18.245Z,98001.05
2022-12-15T19:22:48.746Z,97993.67
2022-12-15T19:25:26.505Z,97982.63
2022-12-15T19:27:55.852Z,97979.45
2022-12-15T19:30:23.453Z,97971.41
2022-12-15T19:32:51.205Z,97975.45
2022-12-15T19:35:20.711Z,97973.10
2022-12-15T19:37:49.098Z,97971.92
2022-12-15T19:40:22.843Z,97972.27
2022-12-15T19:42:51.349Z,97977.12
2022-12-15T19:45:25.406Z,97982.64
2022-12-15T19:47:54.070Z,97982.65
2022-12-15T19:50:31.259Z,97981.97
2022-12-15T19:53:02.372Z,97976.27
2022-12-15T19:55:33.236Z,97974.95
2022-12-15T19:58:23.668Z,97973.08
2022-12-15T20:01:00.345Z,97972.41
2022-12-15T20:03:31.459Z,97969.90
2022-12-15T20:06:02.227Z,97969.05
2022-12-15T20:08:35.745Z,97972.39
2022-12-15T20:11:04.202Z,97972.90
2022-12-15T20:13:32.479Z,97972.58
2022-12-15T20:16:02.426Z,97971.41
2022-12-15T20:18:30.312Z,97971.27
2022-12-15T20:20:59.197Z,97971.75
2022-12-15T20:23:28.284Z,97970.08
2022-12-15T20:25:56.199Z,97966.56
2022-12-15T20:28:26.575Z,97966.73
2022-12-15T20:30:55.821Z,97967.07
2022-12-15T20:33:24.010Z,97971.23
2022-12-15T20:35:52.568Z,97966.73
2022-12-15T20:38:34.145Z,97962.55
2022-12-15T20:41:02.918Z,97964.53
2022-12-15T20:43:32.338Z,97962.86
2022-12-15T20:46:22.843Z,97955.83
2022-12-15T20:48:52.288Z,97951.31
2022-12-15T20:51:28.488Z,97951.98
2022-12-15T20:53:58.287Z,97947.14
2022-12-15T20:56:26.259Z,97944.45
2022-12-15T20:58:56.068Z,97936.60
2022-12-15T21:01:28.225Z,97929.88
2022-12-15T21:03:57.261Z,97931.71
2022-12-15T21:06:26.075Z,97932.23
2022-12-15T21:08:54.319Z,97930.05
2022-12-15T21:11:27.246Z,97927.37
2022-12-15T21:13:57.155Z,97927.55
2022-12-15T21:16:28.488Z,97920.87
2022-12-15T21:19:20.355Z,97919.55
2022-12-15T21:21:49.667Z,97923.21
2022-12-15T21:24:22.759Z,97917.34
2022-12-15T21:26:50.805Z,97910.46
2022-12-15T21:29:21.873Z,97906.61
2022-12-15T21:31:49.413Z,97905.77
2022-12-15T21:34:17.600Z,97908.64
2022-12-15T21:36:49.639Z,97910.98
2022-12-15T21:39:25.826Z,97910.67
2022-12-15T21:41:55.171Z,97907.15
2022-12-15T21:44:23.133Z,97899.96
2022-12-15T21:46:51.593Z,97895.10
2022-12-15T21:49:19.415Z,97900.11
2022-12-15T21:52:09.233Z,97901.44
2022-12-15T21:54:37.123Z,97896.59
2022-12-15T21:57:11.831Z,97895.92
2022-12-15T21:59:39.568Z,97890.23
2022-12-15T22:02:25.639Z,97882.37
2022-12-15T22:04:53.530Z,97881.35
2022-12-15T22:07:22.730Z,97883.20
2022-12-15T22:09:50.439Z,97885.72
2022-12-15T22:12:22.782Z,97880.02
2022-12-15T22:14:50.494Z,97875.52
2022-12-15T22:17:22.111Z,97879.52
2022-12-15T22:19:49.869Z,97883.55
2022-12-15T22:22:17.521Z,97885.23
2022-12-15T22:24:45.101Z,97887.40
2022-12-15T22:27:22.358Z,97879.70
2022-12-15T22:29:50.602Z,97881.04
2022-12-15T22:32:18.218Z,97886.74
2022-12-15T22:34:46.124Z,97884.75
2022-12-15T22:37:13.684Z,97879.89
2022-12-15T22:39:41.226Z,97877.40
2022-12-15T22:42:16.949Z,97878.07
2022-12-15T22:44:45.407Z,97868.52
2022-12-15T22:47:13.317Z,97856.46
2022-12-15T22:49:41.781Z,97853.29
2022-12-15T22:52:16.319Z,97840.74
2022-12-15T22:54:45.967Z,97841.24
2022-12-15T22:57:26.746Z,97840.09
2022-12-15T23:00:04.312Z,97841.42
2022-12-15T23:02:36.870Z,97841.90
2022-12-15T23:05:06.235Z,97838.89
2022-12-15T23:07:34.800Z,97839.55
2022-12-15T23:10:02.898Z,97840.40
2022-12-15T23:12:30.880Z,97834.08
2022-12-15T23:14:58.746Z,97828.39
2022-12-15T23:17:26.290Z,97824.52
2022-12-15T23:19:54.624Z,97823.86
2022-12-15T23:22:22.582Z,97816.82
2022-12-15T23:24:50.255Z,97807.27
2022-12-15T23:27:17.863Z,97795.90
2022-12-15T23:29:45.486Z,97790.73
2022-12-15T23:32:13.098Z,97792.76
2022-12-15T23:34:40.669Z,97791.92
2022-12-15T23:37:08.415Z,97790.77
2022-12-15T23:39:35.957Z,97785.92
2022-12-15T23:42:03.733Z,97771.70
2022-12-15T23:44:31.336Z,97775.73
2022-12-15T23:46:59.364Z,97780.27
2022-12-15T23:49:27.310Z,97785.14
2022-12-15T23:51:55.153Z,97783.80
2022-12-15T23:54:23.007Z,97787.17
2022-12-15T23:56:50.567Z,97780.65
2022-12-15T23:59:19.383Z,97778.81
